This is the latest recevied weather packets stored in our database for station/object KI7JYE. If no packets are shown the sender has not sent any weather packets the latest 10 day(s).
| Time | Temp. | Humidity | Pressure | Rain* | Wind** | Luminosity | Snow |
|---|---|---|---|---|---|---|---|
| 1778099727 | 18.33° C | 74% | 1019.4 hPa | 0 mm | - | 301 W/m² | - |
| 1778099423 | 18.89° C | 72% | 1019.4 hPa | 0 mm | - | 503 W/m² | - |
| 1778099120 | 19.44° C | 71% | 1019.3 hPa | 0 mm | - | 292 W/m² | - |
| 1778098816 | 20° C | 67% | 1019.4 hPa | 0 mm | - | 741 W/m² | - |
| 1778098515 | 19.44° C | 69% | 1019.3 hPa | 0 mm | - | 435 W/m² | - |
| 1778098211 | 18.89° C | 72% | 1019.4 hPa | 0 mm | - | 256 W/m² | - |
| 1778097907 | 18.89° C | 72% | 1019.6 hPa | 0 mm | - | 222 W/m² | - |
| 1778097604 | 17.78° C | 73% | 1019.7 hPa | 0 mm | - | 400 W/m² | - |
| 1778097301 | 17.22° C | 76% | 1019.7 hPa | 0 mm | - | 410 W/m² | - |
| 1778096997 | 17.22° C | 76% | 1019.9 hPa | 0 mm | - | 290 W/m² | - |
| 1778096694 | 17.78° C | 74% | 1019.8 hPa | 0 mm | - | 301 W/m² | - |
| 1778096391 | 18.89° C | 71% | 1019.8 hPa | 0 mm | - | 318 W/m² | - |
| 1778096088 | 18.89° C | 71% | 1020.1 hPa | 0 mm | - | 306 W/m² | - |
| 1778095785 | 18.89° C | 71% | 1019.9 hPa | 0 mm | - | 283 W/m² | - |
| 1778095482 | 18.33° C | 73% | 1019.9 hPa | 0 mm | - | 346 W/m² | - |
| 1778095178 | 18.33° C | 73% | 1020 hPa | 0 mm | - | 351 W/m² | - |
| 1778094875 | 18.33° C | 74% | 1019.9 hPa | 0 mm | - | 327 W/m² | - |
| 1778094572 | 18.33° C | 72% | 1019.7 hPa | 0 mm | - | 410 W/m² | - |
| 1778094268 | 18.33° C | 73% | 1019.6 hPa | 0 mm | - | 305 W/m² | - |
| 1778093965 | 17.78° C | 74% | 1019.8 hPa | 0 mm | - | 268 W/m² | - |
| 1778093663 | 17.78° C | 73% | 1019.7 hPa | 0 mm | - | 334 W/m² | - |
| 1778093360 | 18.89° C | 69% | 1019.9 hPa | 0 mm | - | 1040 W/m² | - |
| 1778093056 | 18.33° C | 72% | 1019.7 hPa | 0 mm | - | 979 W/m² | - |
| 1778092754 | 17.78° C | 74% | 1019.8 hPa | 0 mm | - | 457 W/m² | - |
| 1778092449 | 18.33° C | 72% | 1019.4 hPa | 0 mm | - | 351 W/m² | - |
* Rain latest hour (hover to see other rain measurements)
** Current wind speed in m/s (hover to see current wind gust speed)